Orange, Massachusetts
Current Conditions -  °F | °C
As of 9:52 AM on Sunday 21 Dec 2014 (Local Time) from KORE Reporting Station
Overcast Overcast  
Wind Chill: 30°   Ceiling: 2000
Heat Index: 30°   Visibility: 10mi
Dew Point: 24°   Wind: 3mph
Humidity: 79%   Direction: 360°N
Pressure: 30.32"   Gusts: NA
Location:  42.59°N, 72.3°W
Report Text: KORE 211452Z AUTO 36003KT 10SM OVC020 M01/M04 A3032 RMK AO2 UPE1353 SLP275 P0000 60000 T10111044 53010
Loading
Personal Weather Stations






























Interactive Weather Map New forecast layout! Learn more

10-Day Weather Forecast

Advertisements
Track Severe Weather on mobile